sensor_id;sensor_type;location;lat;lon;timestamp;pressure;altitude;pressure_sealevel;temperature;humidity
68456;BME280;55437;55.046;38.838;2023-05-11T00:01:33;100572.03;;;9.20;58.34
68456;BME280;55437;55.046;38.838;2023-05-11T00:03:59;100572.00;;;9.23;58.38
68456;BME280;55437;55.046;38.838;2023-05-11T00:06:25;100569.44;;;9.23;58.45
68456;BME280;55437;55.046;38.838;2023-05-11T00:08:51;100571.19;;;9.20;58.40
68456;BME280;55437;55.046;38.838;2023-05-11T00:11:16;100561.03;;;9.15;59.09
68456;BME280;55437;55.046;38.838;2023-05-11T00:13:45;100573.00;;;9.15;59.35
68456;BME280;55437;55.046;38.838;2023-05-11T00:16:12;100559.38;;;9.10;59.26
68456;BME280;55437;55.046;38.838;2023-05-11T00:18:37;100570.50;;;9.09;59.39
68456;BME280;55437;55.046;38.838;2023-05-11T00:21:03;100565.34;;;9.10;59.84
68456;BME280;55437;55.046;38.838;2023-05-11T00:23:29;100555.94;;;9.12;59.20
68456;BME280;55437;55.046;38.838;2023-05-11T00:25:55;100549.09;;;9.13;58.91
68456;BME280;55437;55.046;38.838;2023-05-11T00:28:21;100552.47;;;9.16;58.62
68456;BME280;55437;55.046;38.838;2023-05-11T00:30:48;100555.03;;;9.16;58.62
68456;BME280;55437;55.046;38.838;2023-05-11T00:33:13;100566.13;;;9.17;58.35
68456;BME280;55437;55.046;38.838;2023-05-11T00:35:40;100567.84;;;9.16;58.22
68456;BME280;55437;55.046;38.838;2023-05-11T00:38:07;100567.84;;;9.16;58.48
68456;BME280;55437;55.046;38.838;2023-05-11T00:40:33;100572.16;;;9.13;58.55
68456;BME280;55437;55.046;38.838;2023-05-11T00:42:59;100579.91;;;9.07;58.69
68456;BME280;55437;55.046;38.838;2023-05-11T00:45:25;100572.31;;;9.02;58.22
68456;BME280;55437;55.046;38.838;2023-05-11T00:47:51;100576.59;;;9.00;58.69
68456;BME280;55437;55.046;38.838;2023-05-11T00:50:17;100564.63;;;9.03;58.72
68456;BME280;55437;55.046;38.838;2023-05-11T00:52:43;100565.44;;;9.06;58.67
68456;BME280;55437;55.046;38.838;2023-05-11T00:55:10;100570.59;;;9.02;58.65
68456;BME280;55437;55.046;38.838;2023-05-11T00:57:38;100577.41;;;9.05;58.99
68456;BME280;55437;55.046;38.838;2023-05-11T01:00:06;100576.56;;;9.05;58.81
68456;BME280;55437;55.046;38.838;2023-05-11T01:02:34;100571.38;;;9.06;58.54
68456;BME280;55437;55.046;38.838;2023-05-11T01:04:59;100568.81;;;9.06;58.52
68456;BME280;55437;55.046;38.838;2023-05-11T01:07:34;100581.63;;;9.06;58.62
68456;BME280;55437;55.046;38.838;2023-05-11T01:17:56;100583.50;;;8.95;59.21
68456;BME280;55437;55.046;38.838;2023-05-11T01:20:26;100579.38;;;8.85;59.25
68456;BME280;55437;55.046;38.838;2023-05-11T01:31:14;100585.72;;;8.56;60.52
68456;BME280;55437;55.046;38.838;2023-05-11T01:33:55;100581.47;;;8.52;60.75
68456;BME280;55437;55.046;38.838;2023-05-11T01:36:27;100586.66;;;8.46;60.96
68456;BME280;55437;55.046;38.838;2023-05-11T01:39:12;100586.75;;;8.39;61.15
68456;BME280;55437;55.046;38.838;2023-05-11T01:41:44;100588.50;;;8.35;61.75
68456;BME280;55437;55.046;38.838;2023-05-11T01:44:17;100585.09;;;8.35;61.66
68456;BME280;55437;55.046;38.838;2023-05-11T01:46:46;100580.78;;;8.40;61.61
68456;BME280;55437;55.046;38.838;2023-05-11T01:49:15;100588.19;;;8.62;61.23
68456;BME280;55437;55.046;38.838;2023-05-11T01:51:42;100587.66;;;9.05;60.46
68456;BME280;55437;55.046;38.838;2023-05-11T01:54:10;100585.19;;;9.54;59.70
68456;BME280;55437;55.046;38.838;2023-05-11T01:56:37;100588.56;;;10.07;58.85
68456;BME280;55437;55.046;38.838;2023-05-11T01:59:05;100585.09;;;10.57;58.12
68456;BME280;55437;55.046;38.838;2023-05-11T02:01:33;100583.00;;;11.14;56.78
68456;BME280;55437;55.046;38.838;2023-05-11T02:04:02;100590.31;;;11.68;55.77
68456;BME280;55437;55.046;38.838;2023-05-11T02:06:30;100587.66;;;12.07;54.68
68456;BME280;55437;55.046;38.838;2023-05-11T02:08:59;100585.06;;;12.39;54.07
68456;BME280;55437;55.046;38.838;2023-05-11T02:11:26;100586.19;;;12.31;54.20
68456;BME280;55437;55.046;38.838;2023-05-11T02:13:55;100586.97;;;12.00;54.64
68456;BME280;55437;55.046;38.838;2023-05-11T02:16:22;100585.16;;;11.70;55.28
68456;BME280;55437;55.046;38.838;2023-05-11T02:18:49;100584.75;;;11.49;55.48
68456;BME280;55437;55.046;38.838;2023-05-11T02:21:36;100589.50;;;11.31;56.00
68456;BME280;55437;55.046;38.838;2023-05-11T02:24:04;100583.84;;;11.15;56.39
68456;BME280;55437;55.046;38.838;2023-05-11T02:26:31;100584.97;;;11.03;56.28
68456;BME280;55437;55.046;38.838;2023-05-11T02:28:57;100589.53;;;10.91;56.39
68456;BME280;55437;55.046;38.838;2023-05-11T02:31:28;100582.69;;;10.90;56.56
68456;BME280;55437;55.046;38.838;2023-05-11T02:34:05;100587.84;;;10.88;56.50
68456;BME280;55437;55.046;38.838;2023-05-11T02:36:35;100582.00;;;10.83;56.53
68456;BME280;55437;55.046;38.838;2023-05-11T02:39:06;100588.16;;;11.51;55.32
68456;BME280;55437;55.046;38.838;2023-05-11T02:41:42;100584.28;;;12.05;54.37
68456;BME280;55437;55.046;38.838;2023-05-11T02:44:13;100586.31;;;13.16;51.97
68456;BME280;55437;55.046;38.838;2023-05-11T02:46:40;100582.69;;;13.49;51.47
68456;BME280;55437;55.046;38.838;2023-05-11T02:49:09;100587.38;;;14.14;50.27
68456;BME280;55437;55.046;38.838;2023-05-11T02:51:38;100582.63;;;14.02;50.39
68456;BME280;55437;55.046;38.838;2023-05-11T02:54:07;100589.22;;;13.86;50.49
68456;BME280;55437;55.046;38.838;2023-05-11T02:56:41;100587.38;;;14.62;48.68
68456;BME280;55437;55.046;38.838;2023-05-11T02:59:07;100585.16;;;15.43;47.14
68456;BME280;55437;55.046;38.838;2023-05-11T03:01:34;100595.53;;;16.26;45.41
68456;BME280;55437;55.046;38.838;2023-05-11T03:04:03;100592.03;;;17.04;43.66
68456;BME280;55437;55.046;38.838;2023-05-11T03:06:29;100592.44;;;17.68;42.62
68456;BME280;55437;55.046;38.838;2023-05-11T03:09:14;100588.44;;;18.13;41.51
68456;BME280;55437;55.046;38.838;2023-05-11T03:11:45;100597.38;;;18.24;41.15
68456;BME280;55437;55.046;38.838;2023-05-11T03:14:12;100595.69;;;18.23;41.20
68456;BME280;55437;55.046;38.838;2023-05-11T03:16:40;100593.63;;;17.61;41.67
68456;BME280;55437;55.046;38.838;2023-05-11T03:19:07;100597.38;;;17.01;42.23
68456;BME280;55437;55.046;38.838;2023-05-11T03:21:35;100599.91;;;16.44;42.78
68456;BME280;55437;55.046;38.838;2023-05-11T03:24:02;100605.97;;;16.04;43.27
68456;BME280;55437;55.046;38.838;2023-05-11T03:26:34;100596.81;;;15.75;43.66
68456;BME280;55437;55.046;38.838;2023-05-11T03:29:01;100609.47;;;15.61;43.69
68456;BME280;55437;55.046;38.838;2023-05-11T03:31:28;100606.44;;;15.72;43.83
68456;BME280;55437;55.046;38.838;2023-05-11T03:33:54;100602.56;;;15.82;43.38
68456;BME280;55437;55.046;38.838;2023-05-11T03:36:23;100606.31;;;15.75;42.81
68456;BME280;55437;55.046;38.838;2023-05-11T03:38:50;100598.16;;;15.64;42.74
68456;BME280;55437;55.046;38.838;2023-05-11T03:41:19;100599.69;;;15.46;42.51
68456;BME280;55437;55.046;38.838;2023-05-11T03:43:51;100610.28;;;15.40;42.28
68456;BME280;55437;55.046;38.838;2023-05-11T03:46:20;100605.84;;;15.43;42.52
68456;BME280;55437;55.046;38.838;2023-05-11T03:48:47;100605.88;;;15.65;42.27
68456;BME280;55437;55.046;38.838;2023-05-11T03:51:18;100611.91;;;16.06;41.65
68456;BME280;55437;55.046;38.838;2023-05-11T03:53:45;100605.00;;;16.27;41.43
68456;BME280;55437;55.046;38.838;2023-05-11T03:56:12;100611.19;;;16.23;41.11
68456;BME280;55437;55.046;38.838;2023-05-11T03:58:38;100612.94;;;16.23;41.29
68456;BME280;55437;55.046;38.838;2023-05-11T04:01:08;100607.34;;;16.32;41.58
68456;BME280;55437;55.046;38.838;2023-05-11T04:03:51;100616.63;;;16.37;41.66
68456;BME280;55437;55.046;38.838;2023-05-11T04:06:18;100613.66;;;16.26;41.31
68456;BME280;55437;55.046;38.838;2023-05-11T04:08:49;100617.50;;;16.17;41.21
68456;BME280;55437;55.046;38.838;2023-05-11T04:11:15;100617.19;;;16.05;40.63
68456;BME280;55437;55.046;38.838;2023-05-11T04:13:41;100612.75;;;16.07;40.30
68456;BME280;55437;55.046;38.838;2023-05-11T04:16:08;100613.00;;;16.21;40.29
68456;BME280;55437;55.046;38.838;2023-05-11T04:18:34;100607.34;;;16.32;40.00
68456;BME280;55437;55.046;38.838;2023-05-11T04:21:00;100614.94;;;16.36;39.76
68456;BME280;55437;55.046;38.838;2023-05-11T04:23:25;100622.59;;;16.39;39.67
68456;BME280;55437;55.046;38.838;2023-05-11T04:25:55;100618.19;;;16.41;39.31
68456;BME280;55437;55.046;38.838;2023-05-11T04:28:39;100615.19;;;16.30;38.89
68456;BME280;55437;55.046;38.838;2023-05-11T04:31:05;100616.97;;;16.30;38.65
68456;BME280;55437;55.046;38.838;2023-05-11T04:33:31;100621.16;;;16.32;38.06
68456;BME280;55437;55.046;38.838;2023-05-11T04:35:57;100609.34;;;16.45;37.51
68456;BME280;55437;55.046;38.838;2023-05-11T04:38:24;100608.31;;;17.07;36.74
68456;BME280;55437;55.046;38.838;2023-05-11T04:40:50;100608.03;;;17.85;36.26
68456;BME280;55437;55.046;38.838;2023-05-11T04:43:17;100604.72;;;18.66;35.29
68456;BME280;55437;55.046;38.838;2023-05-11T04:45:47;100617.44;;;19.51;34.16
68456;BME280;55437;55.046;38.838;2023-05-11T04:48:20;100616.69;;;20.09;32.89
68456;BME280;55437;55.046;38.838;2023-05-11T04:50:47;100613.69;;;20.73;32.34
68456;BME280;55437;55.046;38.838;2023-05-11T04:53:15;100612.75;;;21.30;31.29
68456;BME280;55437;55.046;38.838;2023-05-11T04:55:42;100608.44;;;21.82;30.44
68456;BME280;55437;55.046;38.838;2023-05-11T04:58:07;100611.28;;;21.92;29.76
68456;BME280;55437;55.046;38.838;2023-05-11T05:00:33;100611.72;;;21.59;29.37
68456;BME280;55437;55.046;38.838;2023-05-11T05:03:01;100606.09;;;21.38;29.51
68456;BME280;55437;55.046;38.838;2023-05-11T05:05:27;100607.06;;;21.37;29.63
68456;BME280;55437;55.046;38.838;2023-05-11T05:07:52;100603.81;;;21.34;29.08
68456;BME280;55437;55.046;38.838;2023-05-11T05:10:18;100606.72;;;21.15;28.83
68456;BME280;55437;55.046;38.838;2023-05-11T05:12:45;100601.88;;;21.09;28.78
68456;BME280;55437;55.046;38.838;2023-05-11T05:15:12;100602.47;;;21.41;28.79
68456;BME280;55437;55.046;38.838;2023-05-11T05:17:38;100608.63;;;21.79;28.00
68456;BME280;55437;55.046;38.838;2023-05-11T05:20:05;100599.97;;;21.91;27.67
68456;BME280;55437;55.046;38.838;2023-05-11T05:22:32;100606.09;;;22.30;26.94
68456;BME280;55437;55.046;38.838;2023-05-11T05:24:58;100606.94;;;22.81;26.35
68456;BME280;55437;55.046;38.838;2023-05-11T05:27:25;100605.63;;;23.23;26.01
68456;BME280;55437;55.046;38.838;2023-05-11T05:29:52;100602.00;;;23.37;24.89
68456;BME280;55437;55.046;38.838;2023-05-11T05:32:18;100603.13;;;22.85;24.59
68456;BME280;55437;55.046;38.838;2023-05-11T05:34:45;100603.00;;;22.99;24.11
68456;BME280;55437;55.046;38.838;2023-05-11T05:37:12;100600.34;;;23.12;23.88
68456;BME280;55437;55.046;38.838;2023-05-11T05:39:38;100607.09;;;23.27;24.06
68456;BME280;55437;55.046;38.838;2023-05-11T05:42:04;100598.50;;;23.49;24.10
68456;BME280;55437;55.046;38.838;2023-05-11T05:44:32;100607.81;;;23.77;23.16
68456;BME280;55437;55.046;38.838;2023-05-11T05:46:57;100596.97;;;23.82;22.47
68456;BME280;55437;55.046;38.838;2023-05-11T05:49:26;100602.53;;;23.66;22.13
68456;BME280;55437;55.046;38.838;2023-05-11T05:51:52;100595.94;;;24.06;21.81
68456;BME280;55437;55.046;38.838;2023-05-11T05:54:17;100600.31;;;24.41;21.72
68456;BME280;55437;55.046;38.838;2023-05-11T05:56:44;100585.88;;;24.35;21.28
68456;BME280;55437;55.046;38.838;2023-05-11T05:59:10;100591.69;;;25.06;20.65
68456;BME280;55437;55.046;38.838;2023-05-11T06:01:38;100588.41;;;25.57;20.38
68456;BME280;55437;55.046;38.838;2023-05-11T06:04:13;100595.13;;;25.81;19.75
68456;BME280;55437;55.046;38.838;2023-05-11T06:06:40;100598.78;;;26.32;19.30
68456;BME280;55437;55.046;38.838;2023-05-11T06:09:06;100590.97;;;26.51;19.08
68456;BME280;55437;55.046;38.838;2023-05-11T06:11:32;100605.91;;;26.41;19.04
68456;BME280;55437;55.046;38.838;2023-05-11T06:13:58;100597.03;;;26.21;19.24
68456;BME280;55437;55.046;38.838;2023-05-11T06:16:24;100599.34;;;26.35;19.34
68456;BME280;55437;55.046;38.838;2023-05-11T06:18:51;100594.53;;;26.40;18.92
68456;BME280;55437;55.046;38.838;2023-05-11T06:21:17;100605.06;;;26.19;19.13
68456;BME280;55437;55.046;38.838;2023-05-11T06:23:42;100600.13;;;25.84;19.50
68456;BME280;55437;55.046;38.838;2023-05-11T06:26:09;100609.84;;;26.05;19.13
68456;BME280;55437;55.046;38.838;2023-05-11T06:28:35;100604.09;;;26.41;19.14
68456;BME280;55437;55.046;38.838;2023-05-11T06:31:04;100602.66;;;26.98;18.66
68456;BME280;55437;55.046;38.838;2023-05-11T06:33:33;100592.28;;;27.35;18.53
68456;BME280;55437;55.046;38.838;2023-05-11T06:36:06;100598.69;;;26.83;18.50
68456;BME280;55437;55.046;38.838;2023-05-11T06:38:34;100594.31;;;26.93;18.49
68456;BME280;55437;55.046;38.838;2023-05-11T06:41:00;100590.25;;;26.89;18.56
68456;BME280;55437;55.046;38.838;2023-05-11T06:43:44;100599.75;;;27.11;18.37
68456;BME280;55437;55.046;38.838;2023-05-11T06:46:39;100585.97;;;26.48;18.67
68456;BME280;55437;55.046;38.838;2023-05-11T06:49:23;100584.59;;;26.53;18.51
68456;BME280;55437;55.046;38.838;2023-05-11T06:51:49;100573.25;;;27.32;18.18
68456;BME280;55437;55.046;38.838;2023-05-11T06:54:15;100578.16;;;27.65;17.88
68456;BME280;55437;55.046;38.838;2023-05-11T06:56:41;100589.84;;;27.63;17.64
68456;BME280;55437;55.046;38.838;2023-05-11T06:59:07;100581.19;;;27.70;17.49
68456;BME280;55437;55.046;38.838;2023-05-11T07:01:33;100577.78;;;28.07;17.50
68456;BME280;55437;55.046;38.838;2023-05-11T07:04:17;100572.44;;;27.79;17.33
68456;BME280;55437;55.046;38.838;2023-05-11T07:06:43;100581.13;;;26.93;17.79
68456;BME280;55437;55.046;38.838;2023-05-11T07:09:09;100583.81;;;26.11;18.72
68456;BME280;55437;55.046;38.838;2023-05-11T07:11:35;100574.13;;;25.06;19.53
68456;BME280;55437;55.046;38.838;2023-05-11T07:14:02;100586.84;;;24.46;19.90
68456;BME280;55437;55.046;38.838;2023-05-11T07:16:28;100581.59;;;24.46;20.20
68456;BME280;55437;55.046;38.838;2023-05-11T07:18:54;100574.31;;;24.60;20.14
68456;BME280;55437;55.046;38.838;2023-05-11T07:21:21;100586.34;;;24.96;19.99
68456;BME280;55437;55.046;38.838;2023-05-11T07:23:47;100591.66;;;25.17;19.58
68456;BME280;55437;55.046;38.838;2023-05-11T07:26:12;100604.38;;;24.67;19.87
68456;BME280;55437;55.046;38.838;2023-05-11T07:28:38;100600.78;;;23.78;20.30
68456;BME280;55437;55.046;38.838;2023-05-11T07:31:05;100593.69;;;24.02;20.55
68456;BME280;55437;55.046;38.838;2023-05-11T07:33:31;100588.72;;;25.10;20.03
68456;BME280;55437;55.046;38.838;2023-05-11T07:35:59;100590.16;;;24.70;19.32
68456;BME280;55437;55.046;38.838;2023-05-11T07:38:25;100586.44;;;22.99;19.53
68456;BME280;55437;55.046;38.838;2023-05-11T07:40:50;100578.75;;;22.47;20.52
68456;BME280;55437;55.046;38.838;2023-05-11T07:43:16;100577.25;;;22.93;20.85
68456;BME280;55437;55.046;38.838;2023-05-11T07:45:42;100585.00;;;23.19;21.16
68456;BME280;55437;55.046;38.838;2023-05-11T07:48:07;100591.13;;;23.07;20.96
68456;BME280;55437;55.046;38.838;2023-05-11T07:50:51;100589.50;;;22.93;21.53
68456;BME280;55437;55.046;38.838;2023-05-11T07:53:17;100580.97;;;23.74;21.24
68456;BME280;55437;55.046;38.838;2023-05-11T07:55:43;100591.53;;;23.61;21.27
68456;BME280;55437;55.046;38.838;2023-05-11T07:58:08;100584.78;;;23.22;21.25
68456;BME280;55437;55.046;38.838;2023-05-11T08:00:34;100580.78;;;22.43;22.43
68456;BME280;55437;55.046;38.838;2023-05-11T08:03:00;100575.81;;;21.88;22.40
68456;BME280;55437;55.046;38.838;2023-05-11T08:05:26;100582.91;;;21.34;22.99
68456;BME280;55437;55.046;38.838;2023-05-11T08:07:52;100576.91;;;20.64;23.28
68456;BME280;55437;55.046;38.838;2023-05-11T08:10:18;100580.38;;;20.06;23.74
68456;BME280;55437;55.046;38.838;2023-05-11T08:12:44;100573.47;;;19.91;23.73
68456;BME280;55437;55.046;38.838;2023-05-11T08:15:10;100580.41;;;19.76;23.74
68456;BME280;55437;55.046;38.838;2023-05-11T08:17:36;100583.34;;;19.56;24.18
68456;BME280;55437;55.046;38.838;2023-05-11T08:20:03;100587.72;;;19.69;24.42
68456;BME280;55437;55.046;38.838;2023-05-11T08:22:30;100591.44;;;19.95;24.29
68456;BME280;55437;55.046;38.838;2023-05-11T08:24:56;100586.44;;;20.21;24.33
68456;BME280;55437;55.046;38.838;2023-05-11T08:27:22;100585.56;;;20.50;24.29
68456;BME280;55437;55.046;38.838;2023-05-11T08:29:49;100587.59;;;20.45;24.12
68456;BME280;55437;55.046;38.838;2023-05-11T08:32:15;100579.88;;;20.43;24.45
68456;BME280;55437;55.046;38.838;2023-05-11T08:34:42;100586.34;;;20.79;25.02
68456;BME280;55437;55.046;38.838;2023-05-11T08:37:27;100588.66;;;21.39;24.28
68456;BME280;55437;55.046;38.838;2023-05-11T08:39:53;100577.25;;;21.67;23.42
68456;BME280;55437;55.046;38.838;2023-05-11T08:42:19;100580.06;;;21.10;23.96
68456;BME280;55437;55.046;38.838;2023-05-11T08:44:47;100575.66;;;20.41;24.28
68456;BME280;55437;55.046;38.838;2023-05-11T08:47:14;100577.56;;;20.39;24.83
68456;BME280;55437;55.046;38.838;2023-05-11T08:49:40;100563.91;;;20.76;24.32
68456;BME280;55437;55.046;38.838;2023-05-11T08:52:06;100560.88;;;20.97;23.97
68456;BME280;55437;55.046;38.838;2023-05-11T08:54:33;100560.47;;;21.03;24.43
68456;BME280;55437;55.046;38.838;2023-05-11T08:56:59;100558.75;;;20.89;24.44
68456;BME280;55437;55.046;38.838;2023-05-11T08:59:27;100557.66;;;20.79;24.45
68456;BME280;55437;55.046;38.838;2023-05-11T09:01:54;100560.41;;;20.63;24.31
68456;BME280;55437;55.046;38.838;2023-05-11T09:04:21;100551.72;;;20.77;24.39
68456;BME280;55437;55.046;38.838;2023-05-11T09:06:49;100555.59;;;20.84;24.11
68456;BME280;55437;55.046;38.838;2023-05-11T09:09:15;100550.75;;;20.78;24.59
68456;BME280;55437;55.046;38.838;2023-05-11T09:11:44;100547.00;;;20.96;24.23
68456;BME280;55437;55.046;38.838;2023-05-11T09:14:10;100542.41;;;21.00;23.50
68456;BME280;55437;55.046;38.838;2023-05-11T09:16:36;100541.28;;;20.77;23.63
68456;BME280;55437;55.046;38.838;2023-05-11T09:19:02;100543.16;;;20.61;23.69
68456;BME280;55437;55.046;38.838;2023-05-11T09:21:29;100530.69;;;20.93;24.07
68456;BME280;55437;55.046;38.838;2023-05-11T09:23:57;100539.16;;;20.96;24.03
68456;BME280;55437;55.046;38.838;2023-05-11T09:26:26;100531.97;;;21.00;24.46
68456;BME280;55437;55.046;38.838;2023-05-11T09:28:58;100521.88;;;21.08;23.53
68456;BME280;55437;55.046;38.838;2023-05-11T09:31:40;100540.47;;;21.30;23.22
68456;BME280;55437;55.046;38.838;2023-05-11T09:34:17;100529.97;;;21.03;23.01
68456;BME280;55437;55.046;38.838;2023-05-11T09:36:45;100525.53;;;20.91;23.85
68456;BME280;55437;55.046;38.838;2023-05-11T09:39:12;100522.38;;;20.45;24.02
68456;BME280;55437;55.046;38.838;2023-05-11T09:41:39;100532.88;;;20.29;24.46
68456;BME280;55437;55.046;38.838;2023-05-11T09:44:13;100526.75;;;20.02;24.51
68456;BME280;55437;55.046;38.838;2023-05-11T09:46:44;100525.31;;;19.82;24.27
68456;BME280;55437;55.046;38.838;2023-05-11T09:49:10;100524.88;;;19.90;24.71
68456;BME280;55437;55.046;38.838;2023-05-11T09:51:38;100516.22;;;19.89;24.86
68456;BME280;55437;55.046;38.838;2023-05-11T09:54:20;100514.72;;;19.85;25.06
68456;BME280;55437;55.046;38.838;2023-05-11T09:56:47;100508.41;;;19.89;25.37
68456;BME280;55437;55.046;38.838;2023-05-11T09:59:16;100518.13;;;19.71;24.98
68456;BME280;55437;55.046;38.838;2023-05-11T10:01:42;100514.00;;;19.53;25.08
68456;BME280;55437;55.046;38.838;2023-05-11T10:04:08;100507.88;;;19.38;24.95
68456;BME280;55437;55.046;38.838;2023-05-11T10:06:47;100510.81;;;19.18;25.04
68456;BME280;55437;55.046;38.838;2023-05-11T10:09:32;100508.06;;;19.35;25.05
68456;BME280;55437;55.046;38.838;2023-05-11T10:11:59;100499.69;;;19.44;24.82
68456;BME280;55437;55.046;38.838;2023-05-11T10:14:27;100493.25;;;19.52;24.73
68456;BME280;55437;55.046;38.838;2023-05-11T10:16:57;100504.28;;;19.41;25.12
68456;BME280;55437;55.046;38.838;2023-05-11T10:19:22;100503.94;;;19.01;25.42
68456;BME280;55437;55.046;38.838;2023-05-11T10:21:50;100497.09;;;19.15;25.38
68456;BME280;55437;55.046;38.838;2023-05-11T10:24:17;100496.50;;;19.25;25.15
68456;BME280;55437;55.046;38.838;2023-05-11T10:26:43;100492.34;;;19.53;25.03
68456;BME280;55437;55.046;38.838;2023-05-11T10:29:11;100490.69;;;19.66;25.20
68456;BME280;55437;55.046;38.838;2023-05-11T10:31:38;100508.34;;;19.61;24.70
68456;BME280;55437;55.046;38.838;2023-05-11T10:34:04;100490.84;;;19.63;25.08
68456;BME280;55437;55.046;38.838;2023-05-11T10:36:31;100490.03;;;19.76;25.03
68456;BME280;55437;55.046;38.838;2023-05-11T10:38:57;100492.34;;;19.81;25.09
68456;BME280;55437;55.046;38.838;2023-05-11T10:46:53;100485.03;;;19.43;25.61
68456;BME280;55437;55.046;38.838;2023-05-11T10:57:47;100495.19;;;19.32;25.74
68456;BME280;55437;55.046;38.838;2023-05-11T11:03:08;100488.34;;;19.46;25.38
68456;BME280;55437;55.046;38.838;2023-05-11T11:05:35;100482.94;;;19.50;25.99
68456;BME280;55437;55.046;38.838;2023-05-11T11:08:03;100482.31;;;19.45;25.17
68456;BME280;55437;55.046;38.838;2023-05-11T11:10:40;100470.66;;;19.36;25.35
68456;BME280;55437;55.046;38.838;2023-05-11T11:13:17;100469.97;;;19.19;25.54
68456;BME280;55437;55.046;38.838;2023-05-11T11:18:29;100469.31;;;19.15;25.51
68456;BME280;55437;55.046;38.838;2023-05-11T11:20:57;100459.75;;;19.16;25.65
68456;BME280;55437;55.046;38.838;2023-05-11T11:26:05;100450.16;;;19.16;26.17
68456;BME280;55437;55.046;38.838;2023-05-11T11:31:31;100463.38;;;18.97;26.01
68456;BME280;55437;55.046;38.838;2023-05-11T11:39:44;100446.44;;;18.90;26.85
68456;BME280;55437;55.046;38.838;2023-05-11T11:42:12;100450.97;;;18.87;29.26
68456;BME280;55437;55.046;38.838;2023-05-11T11:44:39;100453.50;;;18.88;30.37
68456;BME280;55437;55.046;38.838;2023-05-11T11:47:15;100456.47;;;18.66;31.33
68456;BME280;55437;55.046;38.838;2023-05-11T11:49:44;100456.25;;;18.38;31.77
68456;BME280;55437;55.046;38.838;2023-05-11T11:52:32;100443.84;;;18.27;31.77
68456;BME280;55437;55.046;38.838;2023-05-11T11:54:58;100437.97;;;18.08;32.34
68456;BME280;55437;55.046;38.838;2023-05-11T12:00:01;100426.81;;;18.22;32.77
68456;BME280;55437;55.046;38.838;2023-05-11T12:02:42;100431.63;;;18.45;32.79
68456;BME280;55437;55.046;38.838;2023-05-11T12:05:15;100435.28;;;18.57;32.20
68456;BME280;55437;55.046;38.838;2023-05-11T12:07:50;100427.56;;;18.55;31.96
68456;BME280;55437;55.046;38.838;2023-05-11T12:10:21;100431.28;;;18.67;32.27
68456;BME280;55437;55.046;38.838;2023-05-11T12:12:48;100427.25;;;18.77;32.59
68456;BME280;55437;55.046;38.838;2023-05-11T12:15:41;100424.69;;;18.91;32.41
68456;BME280;55437;55.046;38.838;2023-05-11T12:18:19;100424.09;;;19.02;32.06
68456;BME280;55437;55.046;38.838;2023-05-11T12:20:45;100425.25;;;19.26;32.16
68456;BME280;55437;55.046;38.838;2023-05-11T12:23:12;100431.59;;;19.36;31.65
68456;BME280;55437;55.046;38.838;2023-05-11T12:25:39;100425.13;;;19.43;31.32
68456;BME280;55437;55.046;38.838;2023-05-11T12:28:05;100416.03;;;19.51;30.71
68456;BME280;55437;55.046;38.838;2023-05-11T12:30:37;100415.78;;;19.55;30.00
68456;BME280;55437;55.046;38.838;2023-05-11T12:33:02;100419.94;;;19.58;29.80
68456;BME280;55437;55.046;38.838;2023-05-11T12:35:31;100414.72;;;19.58;29.57
68456;BME280;55437;55.046;38.838;2023-05-11T12:37:59;100413.28;;;19.68;29.25
68456;BME280;55437;55.046;38.838;2023-05-11T12:40:26;100410.09;;;19.77;28.90
68456;BME280;55437;55.046;38.838;2023-05-11T12:42:54;100413.72;;;19.89;28.74
68456;BME280;55437;55.046;38.838;2023-05-11T12:45:21;100401.97;;;20.10;28.61
68456;BME280;55437;55.046;38.838;2023-05-11T12:47:49;100401.63;;;20.29;28.19
68456;BME280;55437;55.046;38.838;2023-05-11T12:50:16;100387.47;;;20.47;27.89
68456;BME280;55437;55.046;38.838;2023-05-11T12:52:43;100406.84;;;20.43;27.61
68456;BME280;55437;55.046;38.838;2023-05-11T12:55:09;100404.66;;;20.08;27.62
68456;BME280;55437;55.046;38.838;2023-05-11T12:57:38;100413.47;;;19.79;27.67
68456;BME280;55437;55.046;38.838;2023-05-11T13:00:14;100405.91;;;19.60;27.90
68456;BME280;55437;55.046;38.838;2023-05-11T13:02:47;100411.28;;;19.57;27.92
68456;BME280;55437;55.046;38.838;2023-05-11T13:05:14;100406.59;;;19.48;27.91
68456;BME280;55437;55.046;38.838;2023-05-11T13:07:40;100394.81;;;19.42;27.78
68456;BME280;55437;55.046;38.838;2023-05-11T13:10:10;100407.06;;;19.40;28.17
68456;BME280;55437;55.046;38.838;2023-05-11T13:12:49;100398.59;;;19.37;28.13
68456;BME280;55437;55.046;38.838;2023-05-11T13:15:17;100397.22;;;19.31;28.36
68456;BME280;55437;55.046;38.838;2023-05-11T13:17:43;100412.34;;;19.25;28.71
68456;BME280;55437;55.046;38.838;2023-05-11T13:20:22;100408.84;;;19.10;28.53
68456;BME280;55437;55.046;38.838;2023-05-11T13:23:03;100406.41;;;18.93;29.02
68456;BME280;55437;55.046;38.838;2023-05-11T13:25:31;100405.03;;;19.01;28.80
68456;BME280;55437;55.046;38.838;2023-05-11T13:27:57;100411.03;;;18.88;28.75
68456;BME280;55437;55.046;38.838;2023-05-11T13:30:23;100408.03;;;18.80;28.90
68456;BME280;55437;55.046;38.838;2023-05-11T13:32:49;100409.47;;;18.69;29.12
68456;BME280;55437;55.046;38.838;2023-05-11T13:35:15;100414.91;;;18.49;29.12
68456;BME280;55437;55.046;38.838;2023-05-11T13:37:42;100413.81;;;18.38;29.06